sensor_id;sensor_type;location;lat;lon;timestamp;P1;durP1;ratioP1;P2;durP2;ratioP2
33413;SDS011;60055;41.884;12.534;2022-07-23T00:00:53;16.15;;;7.15;;
33413;SDS011;60055;41.884;12.534;2022-07-23T00:03:18;12.05;;;7.38;;
33413;SDS011;60055;41.884;12.534;2022-07-23T00:05:44;17.17;;;7.40;;
33413;SDS011;60055;41.884;12.534;2022-07-23T00:08:10;16.88;;;7.93;;
33413;SDS011;60055;41.884;12.534;2022-07-23T00:10:36;15.25;;;7.32;;
33413;SDS011;60055;41.884;12.534;2022-07-23T00:13:02;16.85;;;8.20;;
33413;SDS011;60055;41.884;12.534;2022-07-23T00:15:27;17.05;;;7.45;;
33413;SDS011;60055;41.884;12.534;2022-07-23T00:17:53;13.45;;;7.00;;
33413;SDS011;60055;41.884;12.534;2022-07-23T00:20:19;18.52;;;7.53;;
33413;SDS011;60055;41.884;12.534;2022-07-23T00:22:48;17.95;;;7.90;;
33413;SDS011;60055;41.884;12.534;2022-07-23T00:25:14;18.05;;;7.85;;
33413;SDS011;60055;41.884;12.534;2022-07-23T00:27:40;15.02;;;7.40;;
33413;SDS011;60055;41.884;12.534;2022-07-23T00:30:06;13.40;;;7.95;;
33413;SDS011;60055;41.884;12.534;2022-07-23T00:32:32;16.17;;;7.88;;
33413;SDS011;60055;41.884;12.534;2022-07-23T00:35:09;16.52;;;8.60;;
33413;SDS011;60055;41.884;12.534;2022-07-23T00:37:34;17.25;;;8.25;;
33413;SDS011;60055;41.884;12.534;2022-07-23T00:40:00;17.25;;;8.18;;
33413;SDS011;60055;41.884;12.534;2022-07-23T00:42:26;18.63;;;7.82;;
33413;SDS011;60055;41.884;12.534;2022-07-23T00:44:51;17.85;;;9.10;;
33413;SDS011;60055;41.884;12.534;2022-07-23T00:47:17;12.93;;;9.02;;
33413;SDS011;60055;41.884;12.534;2022-07-23T00:49:43;18.55;;;8.52;;
33413;SDS011;60055;41.884;12.534;2022-07-23T00:52:08;16.27;;;8.18;;
33413;SDS011;60055;41.884;12.534;2022-07-23T00:54:34;15.57;;;8.77;;
33413;SDS011;60055;41.884;12.534;2022-07-23T00:57:00;19.27;;;8.68;;
33413;SDS011;60055;41.884;12.534;2022-07-23T00:59:26;13.73;;;8.65;;
33413;SDS011;60055;41.884;12.534;2022-07-23T01:01:52;17.38;;;8.55;;
33413;SDS011;60055;41.884;12.534;2022-07-23T01:04:18;17.52;;;8.40;;
33413;SDS011;60055;41.884;12.534;2022-07-23T01:06:44;13.75;;;8.50;;
33413;SDS011;60055;41.884;12.534;2022-07-23T01:09:10;19.52;;;9.20;;
33413;SDS011;60055;41.884;12.534;2022-07-23T01:11:36;15.38;;;8.35;;
33413;SDS011;60055;41.884;12.534;2022-07-23T01:14:08;25.05;;;9.23;;
33413;SDS011;60055;41.884;12.534;2022-07-23T01:16:35;15.55;;;8.93;;
33413;SDS011;60055;41.884;12.534;2022-07-23T01:19:01;14.25;;;8.35;;
33413;SDS011;60055;41.884;12.534;2022-07-23T01:21:28;21.08;;;8.88;;
33413;SDS011;60055;41.884;12.534;2022-07-23T01:23:55;16.88;;;8.85;;
33413;SDS011;60055;41.884;12.534;2022-07-23T01:26:21;19.92;;;8.93;;
33413;SDS011;60055;41.884;12.534;2022-07-23T01:28:46;17.30;;;9.15;;
33413;SDS011;60055;41.884;12.534;2022-07-23T01:31:12;17.38;;;8.60;;
33413;SDS011;60055;41.884;12.534;2022-07-23T01:33:37;18.70;;;8.70;;
33413;SDS011;60055;41.884;12.534;2022-07-23T01:36:03;19.15;;;9.43;;
33413;SDS011;60055;41.884;12.534;2022-07-23T01:38:29;18.25;;;9.05;;
33413;SDS011;60055;41.884;12.534;2022-07-23T01:40:55;17.17;;;9.30;;
33413;SDS011;60055;41.884;12.534;2022-07-23T01:43:20;19.92;;;9.20;;
33413;SDS011;60055;41.884;12.534;2022-07-23T01:45:46;15.00;;;8.82;;
33413;SDS011;60055;41.884;12.534;2022-07-23T01:48:11;16.95;;;9.02;;
33413;SDS011;60055;41.884;12.534;2022-07-23T01:50:37;17.25;;;8.68;;
33413;SDS011;60055;41.884;12.534;2022-07-23T01:53:03;18.52;;;8.52;;
33413;SDS011;60055;41.884;12.534;2022-07-23T01:55:29;14.68;;;8.32;;
33413;SDS011;60055;41.884;12.534;2022-07-23T01:57:54;13.85;;;7.97;;
33413;SDS011;60055;41.884;12.534;2022-07-23T02:00:20;16.05;;;8.70;;
33413;SDS011;60055;41.884;12.534;2022-07-23T02:02:46;17.38;;;8.30;;
33413;SDS011;60055;41.884;12.534;2022-07-23T02:05:11;15.38;;;9.00;;
33413;SDS011;60055;41.884;12.534;2022-07-23T02:07:37;19.95;;;8.65;;
33413;SDS011;60055;41.884;12.534;2022-07-23T02:10:03;21.05;;;9.18;;
33413;SDS011;60055;41.884;12.534;2022-07-23T02:12:29;16.52;;;8.73;;
33413;SDS011;60055;41.884;12.534;2022-07-23T02:14:54;17.17;;;8.63;;
33413;SDS011;60055;41.884;12.534;2022-07-23T02:17:20;18.17;;;8.50;;
33413;SDS011;60055;41.884;12.534;2022-07-23T02:19:45;21.08;;;8.05;;
33413;SDS011;60055;41.884;12.534;2022-07-23T02:22:11;18.85;;;8.85;;
33413;SDS011;60055;41.884;12.534;2022-07-23T02:24:37;17.83;;;8.63;;
33413;SDS011;60055;41.884;12.534;2022-07-23T02:27:02;21.35;;;8.45;;
33413;SDS011;60055;41.884;12.534;2022-07-23T02:29:28;16.98;;;8.38;;
33413;SDS011;60055;41.884;12.534;2022-07-23T02:31:54;20.30;;;8.70;;
33413;SDS011;60055;41.884;12.534;2022-07-23T02:34:19;17.25;;;8.77;;
33413;SDS011;60055;41.884;12.534;2022-07-23T02:36:45;18.25;;;8.50;;
33413;SDS011;60055;41.884;12.534;2022-07-23T02:39:10;14.40;;;8.52;;
33413;SDS011;60055;41.884;12.534;2022-07-23T02:41:36;18.13;;;8.00;;
33413;SDS011;60055;41.884;12.534;2022-07-23T02:44:02;21.00;;;8.68;;
33413;SDS011;60055;41.884;12.534;2022-07-23T02:46:28;15.88;;;9.00;;
33413;SDS011;60055;41.884;12.534;2022-07-23T02:48:53;17.55;;;8.65;;
33413;SDS011;60055;41.884;12.534;2022-07-23T02:51:19;18.27;;;8.70;;
33413;SDS011;60055;41.884;12.534;2022-07-23T02:53:44;14.85;;;8.57;;
33413;SDS011;60055;41.884;12.534;2022-07-23T02:56:10;18.75;;;8.98;;
33413;SDS011;60055;41.884;12.534;2022-07-23T02:58:36;16.48;;;8.32;;
33413;SDS011;60055;41.884;12.534;2022-07-23T03:01:02;13.98;;;7.93;;
33413;SDS011;60055;41.884;12.534;2022-07-23T03:03:28;21.63;;;7.88;;
33413;SDS011;60055;41.884;12.534;2022-07-23T03:05:53;17.70;;;8.02;;
33413;SDS011;60055;41.884;12.534;2022-07-23T03:08:19;17.85;;;7.30;;
33413;SDS011;60055;41.884;12.534;2022-07-23T03:10:45;15.60;;;7.55;;
33413;SDS011;60055;41.884;12.534;2022-07-23T03:13:10;19.95;;;7.57;;
33413;SDS011;60055;41.884;12.534;2022-07-23T03:15:36;14.18;;;7.70;;
33413;SDS011;60055;41.884;12.534;2022-07-23T03:18:02;16.55;;;7.65;;
33413;SDS011;60055;41.884;12.534;2022-07-23T03:20:27;17.98;;;7.40;;
33413;SDS011;60055;41.884;12.534;2022-07-23T03:22:53;17.38;;;7.63;;
33413;SDS011;60055;41.884;12.534;2022-07-23T03:25:19;15.55;;;7.80;;
33413;SDS011;60055;41.884;12.534;2022-07-23T03:27:44;15.73;;;7.50;;
33413;SDS011;60055;41.884;12.534;2022-07-23T03:30:10;15.63;;;7.30;;
33413;SDS011;60055;41.884;12.534;2022-07-23T03:32:36;18.73;;;7.93;;
33413;SDS011;60055;41.884;12.534;2022-07-23T03:35:02;16.60;;;8.02;;
33413;SDS011;60055;41.884;12.534;2022-07-23T03:37:28;17.30;;;8.02;;
33413;SDS011;60055;41.884;12.534;2022-07-23T03:39:54;18.63;;;8.20;;
33413;SDS011;60055;41.884;12.534;2022-07-23T03:42:20;13.63;;;7.35;;
33413;SDS011;60055;41.884;12.534;2022-07-23T03:44:45;10.75;;;6.68;;
33413;SDS011;60055;41.884;12.534;2022-07-23T03:47:11;14.50;;;7.05;;
33413;SDS011;60055;41.884;12.534;2022-07-23T03:49:37;15.30;;;7.40;;
33413;SDS011;60055;41.884;12.534;2022-07-23T03:52:02;10.45;;;7.30;;
33413;SDS011;60055;41.884;12.534;2022-07-23T03:54:28;14.90;;;7.22;;
33413;SDS011;60055;41.884;12.534;2022-07-23T03:56:54;19.42;;;6.88;;
33413;SDS011;60055;41.884;12.534;2022-07-23T03:59:20;14.77;;;6.32;;
33413;SDS011;60055;41.884;12.534;2022-07-23T04:01:45;12.98;;;6.80;;
33413;SDS011;60055;41.884;12.534;2022-07-23T04:04:11;14.07;;;6.35;;
33413;SDS011;60055;41.884;12.534;2022-07-23T04:06:37;12.45;;;6.32;;
33413;SDS011;60055;41.884;12.534;2022-07-23T04:09:03;15.70;;;6.57;;
33413;SDS011;60055;41.884;12.534;2022-07-23T04:11:29;14.50;;;6.07;;
33413;SDS011;60055;41.884;12.534;2022-07-23T04:13:55;18.80;;;6.25;;
33413;SDS011;60055;41.884;12.534;2022-07-23T04:16:20;13.30;;;6.05;;
33413;SDS011;60055;41.884;12.534;2022-07-23T04:18:46;9.75;;;5.88;;
33413;SDS011;60055;41.884;12.534;2022-07-23T04:21:12;12.65;;;6.03;;
33413;SDS011;60055;41.884;12.534;2022-07-23T04:23:37;11.23;;;5.95;;
33413;SDS011;60055;41.884;12.534;2022-07-23T04:26:03;12.20;;;5.65;;
33413;SDS011;60055;41.884;12.534;2022-07-23T04:28:29;12.48;;;5.93;;
33413;SDS011;60055;41.884;12.534;2022-07-23T04:30:58;11.50;;;6.10;;
33413;SDS011;60055;41.884;12.534;2022-07-23T04:33:24;11.30;;;6.10;;
33413;SDS011;60055;41.884;12.534;2022-07-23T04:35:52;10.65;;;5.88;;
33413;SDS011;60055;41.884;12.534;2022-07-23T04:38:17;10.48;;;5.53;;
33413;SDS011;60055;41.884;12.534;2022-07-23T04:40:43;10.07;;;6.30;;
33413;SDS011;60055;41.884;12.534;2022-07-23T04:43:09;11.02;;;5.80;;
33413;SDS011;60055;41.884;12.534;2022-07-23T04:45:34;13.80;;;6.13;;
33413;SDS011;60055;41.884;12.534;2022-07-23T04:48:00;13.35;;;6.20;;
33413;SDS011;60055;41.884;12.534;2022-07-23T04:50:26;11.57;;;6.00;;
33413;SDS011;60055;41.884;12.534;2022-07-23T04:52:51;12.50;;;5.93;;
33413;SDS011;60055;41.884;12.534;2022-07-23T04:55:17;11.20;;;5.95;;
33413;SDS011;60055;41.884;12.534;2022-07-23T04:57:43;13.70;;;6.10;;
33413;SDS011;60055;41.884;12.534;2022-07-23T05:00:09;17.20;;;5.80;;
33413;SDS011;60055;41.884;12.534;2022-07-23T05:02:35;8.35;;;5.43;;
33413;SDS011;60055;41.884;12.534;2022-07-23T05:05:00;10.93;;;5.50;;
33413;SDS011;60055;41.884;12.534;2022-07-23T05:07:26;8.35;;;5.38;;
33413;SDS011;60055;41.884;12.534;2022-07-23T05:09:51;12.07;;;6.18;;
33413;SDS011;60055;41.884;12.534;2022-07-23T05:12:17;10.52;;;5.25;;
33413;SDS011;60055;41.884;12.534;2022-07-23T05:14:43;8.88;;;5.60;;
33413;SDS011;60055;41.884;12.534;2022-07-23T05:17:08;10.05;;;5.88;;
33413;SDS011;60055;41.884;12.534;2022-07-23T05:19:34;13.55;;;5.80;;
33413;SDS011;60055;41.884;12.534;2022-07-23T05:22:00;10.38;;;5.60;;
33413;SDS011;60055;41.884;12.534;2022-07-23T05:24:26;10.45;;;5.35;;
33413;SDS011;60055;41.884;12.534;2022-07-23T05:26:52;16.67;;;5.45;;
33413;SDS011;60055;41.884;12.534;2022-07-23T05:29:17;18.77;;;6.38;;
33413;SDS011;60055;41.884;12.534;2022-07-23T05:31:43;17.25;;;6.25;;
33413;SDS011;60055;41.884;12.534;2022-07-23T05:34:09;11.63;;;5.50;;
33413;SDS011;60055;41.884;12.534;2022-07-23T05:36:34;12.07;;;5.38;;
33413;SDS011;60055;41.884;12.534;2022-07-23T05:39:00;16.30;;;5.95;;
33413;SDS011;60055;41.884;12.534;2022-07-23T05:41:26;11.48;;;5.30;;
33413;SDS011;60055;41.884;12.534;2022-07-23T05:43:52;9.10;;;5.55;;
33413;SDS011;60055;41.884;12.534;2022-07-23T05:46:17;15.18;;;6.72;;
33413;SDS011;60055;41.884;12.534;2022-07-23T05:48:43;19.73;;;8.27;;
33413;SDS011;60055;41.884;12.534;2022-07-23T05:51:11;21.83;;;12.93;;
33413;SDS011;60055;41.884;12.534;2022-07-23T05:53:36;22.42;;;11.40;;
33413;SDS011;60055;41.884;12.534;2022-07-23T05:56:03;22.40;;;10.90;;
33413;SDS011;60055;41.884;12.534;2022-07-23T05:58:29;22.10;;;11.07;;
33413;SDS011;60055;41.884;12.534;2022-07-23T06:00:56;21.10;;;11.07;;
33413;SDS011;60055;41.884;12.534;2022-07-23T06:03:21;20.52;;;10.52;;
33413;SDS011;60055;41.884;12.534;2022-07-23T06:05:47;15.18;;;9.88;;
33413;SDS011;60055;41.884;12.534;2022-07-23T06:08:13;17.75;;;9.80;;
33413;SDS011;60055;41.884;12.534;2022-07-23T06:10:38;15.32;;;9.32;;
33413;SDS011;60055;41.884;12.534;2022-07-23T06:13:04;18.60;;;9.70;;
33413;SDS011;60055;41.884;12.534;2022-07-23T06:15:30;23.58;;;9.95;;
33413;SDS011;60055;41.884;12.534;2022-07-23T06:17:55;14.65;;;8.98;;
33413;SDS011;60055;41.884;12.534;2022-07-23T06:20:21;22.15;;;9.60;;
33413;SDS011;60055;41.884;12.534;2022-07-23T06:22:46;17.20;;;9.93;;
33413;SDS011;60055;41.884;12.534;2022-07-23T06:25:12;18.10;;;9.40;;
33413;SDS011;60055;41.884;12.534;2022-07-23T06:27:38;20.55;;;9.40;;
33413;SDS011;60055;41.884;12.534;2022-07-23T06:30:04;20.27;;;9.35;;
33413;SDS011;60055;41.884;12.534;2022-07-23T06:32:31;18.02;;;10.07;;
33413;SDS011;60055;41.884;12.534;2022-07-23T06:34:56;20.52;;;8.93;;
33413;SDS011;60055;41.884;12.534;2022-07-23T06:37:22;16.00;;;9.60;;
33413;SDS011;60055;41.884;12.534;2022-07-23T06:39:48;17.33;;;8.93;;
33413;SDS011;60055;41.884;12.534;2022-07-23T06:42:13;15.15;;;8.90;;
33413;SDS011;60055;41.884;12.534;2022-07-23T06:44:39;20.90;;;8.77;;
33413;SDS011;60055;41.884;12.534;2022-07-23T06:47:05;16.58;;;9.25;;
33413;SDS011;60055;41.884;12.534;2022-07-23T06:49:31;16.85;;;9.20;;
33413;SDS011;60055;41.884;12.534;2022-07-23T06:51:57;25.83;;;9.82;;
33413;SDS011;60055;41.884;12.534;2022-07-23T06:54:22;22.90;;;9.27;;
33413;SDS011;60055;41.884;12.534;2022-07-23T06:56:48;18.23;;;8.75;;
33413;SDS011;60055;41.884;12.534;2022-07-23T06:59:14;17.13;;;8.40;;
33413;SDS011;60055;41.884;12.534;2022-07-23T07:01:39;19.63;;;8.40;;
33413;SDS011;60055;41.884;12.534;2022-07-23T07:04:05;16.48;;;8.10;;
33413;SDS011;60055;41.884;12.534;2022-07-23T07:06:31;22.52;;;8.18;;
33413;SDS011;60055;41.884;12.534;2022-07-23T07:08:56;17.45;;;7.68;;
33413;SDS011;60055;41.884;12.534;2022-07-23T07:11:22;16.98;;;6.90;;
33413;SDS011;60055;41.884;12.534;2022-07-23T07:13:49;18.95;;;6.65;;
33413;SDS011;60055;41.884;12.534;2022-07-23T07:16:15;15.30;;;6.72;;
33413;SDS011;60055;41.884;12.534;2022-07-23T07:18:40;18.60;;;6.57;;
33413;SDS011;60055;41.884;12.534;2022-07-23T07:21:06;17.60;;;7.05;;
33413;SDS011;60055;41.884;12.534;2022-07-23T07:23:31;11.73;;;6.07;;
33413;SDS011;60055;41.884;12.534;2022-07-23T07:25:57;14.90;;;6.00;;
33413;SDS011;60055;41.884;12.534;2022-07-23T07:28:23;18.55;;;6.38;;
33413;SDS011;60055;41.884;12.534;2022-07-23T07:30:49;16.88;;;6.47;;
33413;SDS011;60055;41.884;12.534;2022-07-23T07:33:14;11.27;;;5.65;;
33413;SDS011;60055;41.884;12.534;2022-07-23T07:35:40;12.77;;;6.03;;
33413;SDS011;60055;41.884;12.534;2022-07-23T07:38:06;16.25;;;5.95;;
33413;SDS011;60055;41.884;12.534;2022-07-23T07:40:31;15.80;;;5.78;;
33413;SDS011;60055;41.884;12.534;2022-07-23T07:42:57;12.82;;;5.80;;
33413;SDS011;60055;41.884;12.534;2022-07-23T07:45:23;16.67;;;5.40;;
33413;SDS011;60055;41.884;12.534;2022-07-23T07:47:50;12.32;;;5.05;;
33413;SDS011;60055;41.884;12.534;2022-07-23T07:50:17;10.38;;;4.90;;
33413;SDS011;60055;41.884;12.534;2022-07-23T07:52:44;9.93;;;4.53;;
33413;SDS011;60055;41.884;12.534;2022-07-23T07:55:10;10.07;;;5.05;;
33413;SDS011;60055;41.884;12.534;2022-07-23T07:57:36;11.93;;;5.07;;
33413;SDS011;60055;41.884;12.534;2022-07-23T08:00:03;14.52;;;5.22;;
33413;SDS011;60055;41.884;12.534;2022-07-23T08:02:39;14.48;;;8.30;;
33413;SDS011;60055;41.884;12.534;2022-07-23T08:05:18;16.98;;;12.40;;
33413;SDS011;60055;41.884;12.534;2022-07-23T08:07:48;11.38;;;5.72;;
33413;SDS011;60055;41.884;12.534;2022-07-23T08:10:14;11.63;;;5.50;;
33413;SDS011;60055;41.884;12.534;2022-07-23T08:12:47;14.65;;;5.20;;
33413;SDS011;60055;41.884;12.534;2022-07-23T08:15:14;8.65;;;4.22;;
33413;SDS011;60055;41.884;12.534;2022-07-23T08:17:42;11.52;;;4.15;;
33413;SDS011;60055;41.884;12.534;2022-07-23T08:20:09;9.57;;;4.18;;
33413;SDS011;60055;41.884;12.534;2022-07-23T08:22:52;13.82;;;4.70;;
33413;SDS011;60055;41.884;12.534;2022-07-23T08:25:22;11.80;;;4.10;;
33413;SDS011;60055;41.884;12.534;2022-07-23T08:27:50;11.27;;;4.22;;
33413;SDS011;60055;41.884;12.534;2022-07-23T08:30:16;8.60;;;4.70;;
33413;SDS011;60055;41.884;12.534;2022-07-23T08:35:17;11.32;;;4.47;;
33413;SDS011;60055;41.884;12.534;2022-07-23T08:37:43;11.40;;;4.60;;
33413;SDS011;60055;41.884;12.534;2022-07-23T08:40:09;13.80;;;4.85;;
33413;SDS011;60055;41.884;12.534;2022-07-23T08:42:36;10.85;;;4.60;;
33413;SDS011;60055;41.884;12.534;2022-07-23T08:45:02;10.98;;;4.65;;
33413;SDS011;60055;41.884;12.534;2022-07-23T08:47:29;7.88;;;4.60;;
33413;SDS011;60055;41.884;12.534;2022-07-23T08:49:55;10.63;;;4.55;;
33413;SDS011;60055;41.884;12.534;2022-07-23T08:52:23;7.90;;;4.82;;
33413;SDS011;60055;41.884;12.534;2022-07-23T08:54:50;10.23;;;5.10;;
33413;SDS011;60055;41.884;12.534;2022-07-23T08:57:16;10.30;;;5.10;;
33413;SDS011;60055;41.884;12.534;2022-07-23T08:59:42;12.50;;;5.40;;
33413;SDS011;60055;41.884;12.534;2022-07-23T09:02:07;13.00;;;5.50;;
33413;SDS011;60055;41.884;12.534;2022-07-23T09:04:33;14.57;;;5.22;;
33413;SDS011;60055;41.884;12.534;2022-07-23T09:07:00;7.60;;;5.18;;
33413;SDS011;60055;41.884;12.534;2022-07-23T09:09:27;15.77;;;5.80;;
33413;SDS011;60055;41.884;12.534;2022-07-23T09:12:02;15.60;;;5.43;;
33413;SDS011;60055;41.884;12.534;2022-07-23T09:14:42;11.52;;;5.55;;
33413;SDS011;60055;41.884;12.534;2022-07-23T09:17:12;10.95;;;5.70;;
33413;SDS011;60055;41.884;12.534;2022-07-23T09:19:42;10.15;;;5.75;;
33413;SDS011;60055;41.884;12.534;2022-07-23T09:22:22;10.45;;;5.40;;
33413;SDS011;60055;41.884;12.534;2022-07-23T09:27:51;19.95;;;6.07;;
33413;SDS011;60055;41.884;12.534;2022-07-23T09:30:27;15.20;;;5.75;;
33413;SDS011;60055;41.884;12.534;2022-07-23T09:33:07;13.88;;;5.55;;
33413;SDS011;60055;41.884;12.534;2022-07-23T09:35:49;9.20;;;5.65;;
33413;SDS011;60055;41.884;12.534;2022-07-23T09:38:17;7.88;;;5.28;;
33413;SDS011;60055;41.884;12.534;2022-07-23T09:40:44;8.07;;;5.65;;
33413;SDS011;60055;41.884;12.534;2022-07-23T09:43:10;10.13;;;5.57;;
33413;SDS011;60055;41.884;12.534;2022-07-23T09:45:37;15.60;;;5.88;;
33413;SDS011;60055;41.884;12.534;2022-07-23T09:48:13;11.32;;;5.32;;
33413;SDS011;60055;41.884;12.534;2022-07-23T09:50:43;12.65;;;5.65;;
33413;SDS011;60055;41.884;12.534;2022-07-23T09:53:10;16.20;;;5.53;;
33413;SDS011;60055;41.884;12.534;2022-07-23T09:55:49;10.27;;;5.25;;
33413;SDS011;60055;41.884;12.534;2022-07-23T09:58:19;10.25;;;5.40;;
33413;SDS011;60055;41.884;12.534;2022-07-23T10:00:47;14.50;;;5.55;;
33413;SDS011;60055;41.884;12.534;2022-07-23T10:03:14;13.52;;;5.45;;
33413;SDS011;60055;41.884;12.534;2022-07-23T10:05:42;10.27;;;4.95;;
33413;SDS011;60055;41.884;12.534;2022-07-23T10:08:10;11.93;;;5.68;;
33413;SDS011;60055;41.884;12.534;2022-07-23T10:10:38;10.85;;;5.03;;
33413;SDS011;60055;41.884;12.534;2022-07-23T10:13:05;11.82;;;5.57;;
33413;SDS011;60055;41.884;12.534;2022-07-23T10:15:50;12.23;;;5.55;;
33413;SDS011;60055;41.884;12.534;2022-07-23T10:18:16;13.40;;;5.47;;
33413;SDS011;60055;41.884;12.534;2022-07-23T10:20:42;11.15;;;5.00;;
33413;SDS011;60055;41.884;12.534;2022-07-23T10:23:33;9.60;;;5.20;;
33413;SDS011;60055;41.884;12.534;2022-07-23T10:31:28;13.70;;;6.20;;
33413;SDS011;60055;41.884;12.534;2022-07-23T10:34:02;16.27;;;6.10;;
33413;SDS011;60055;41.884;12.534;2022-07-23T10:36:30;9.77;;;6.00;;
33413;SDS011;60055;41.884;12.534;2022-07-23T10:41:48;11.38;;;6.25;;
33413;SDS011;60055;41.884;12.534;2022-07-23T10:44:16;12.65;;;5.15;;
33413;SDS011;60055;41.884;12.534;2022-07-23T10:49:28;9.98;;;5.30;;
33413;SDS011;60055;41.884;12.534;2022-07-23T10:54:46;10.68;;;4.78;;
33413;SDS011;60055;41.884;12.534;2022-07-23T10:57:14;11.45;;;4.97;;
33413;SDS011;60055;41.884;12.534;2022-07-23T11:02:26;7.72;;;4.60;;
33413;SDS011;60055;41.884;12.534;2022-07-23T11:04:58;7.93;;;4.65;;
33413;SDS011;60055;41.884;12.534;2022-07-23T11:07:25;7.50;;;4.55;;
33413;SDS011;60055;41.884;12.534;2022-07-23T11:09:51;8.02;;;4.70;;
33413;SDS011;60055;41.884;12.534;2022-07-23T11:17:33;7.88;;;4.28;;
33413;SDS011;60055;41.884;12.534;2022-07-23T11:22:36;8.93;;;4.50;;
33413;SDS011;60055;41.884;12.534;2022-07-23T11:27:47;7.32;;;4.13;;
33413;SDS011;60055;41.884;12.534;2022-07-23T11:32:51;6.07;;;3.97;;
33413;SDS011;60055;41.884;12.534;2022-07-23T11:35:28;7.68;;;3.85;;
33413;SDS011;60055;41.884;12.534;2022-07-23T11:38:06;8.55;;;3.95;;
33413;SDS011;60055;41.884;12.534;2022-07-23T11:40:39;6.50;;;4.22;;
33413;SDS011;60055;41.884;12.534;2022-07-23T11:43:06;7.43;;;3.92;;
33413;SDS011;60055;41.884;12.534;2022-07-23T11:48:04;7.30;;;3.88;;
33413;SDS011;60055;41.884;12.534;2022-07-23T11:50:30;9.55;;;3.85;;
33413;SDS011;60055;41.884;12.534;2022-07-23T11:52:56;7.47;;;3.85;;
33413;SDS011;60055;41.884;12.534;2022-07-23T11:55:22;7.70;;;3.65;;
33413;SDS011;60055;41.884;12.534;2022-07-23T11:57:48;8.23;;;3.60;;
33413;SDS011;60055;41.884;12.534;2022-07-23T12:00:20;6.25;;;3.63;;
33413;SDS011;60055;41.884;12.534;2022-07-23T12:02:53;6.70;;;3.80;;
33413;SDS011;60055;41.884;12.534;2022-07-23T12:05:22;12.48;;;4.03;;
33413;SDS011;60055;41.884;12.534;2022-07-23T12:07:50;14.27;;;3.92;;
33413;SDS011;60055;41.884;12.534;2022-07-23T12:10:22;8.65;;;3.83;;
33413;SDS011;60055;41.884;12.534;2022-07-23T12:12:51;8.10;;;3.70;;
33413;SDS011;60055;41.884;12.534;2022-07-23T12:15:24;6.88;;;3.63;;
33413;SDS011;60055;41.884;12.534;2022-07-23T12:17:50;6.93;;;3.17;;
33413;SDS011;60055;41.884;12.534;2022-07-23T12:20:24;5.28;;;3.65;;
33413;SDS011;60055;41.884;12.534;2022-07-23T12:22:52;6.65;;;3.83;;
33413;SDS011;60055;41.884;12.534;2022-07-23T12:25:23;6.80;;;3.20;;
33413;SDS011;60055;41.884;12.534;2022-07-23T12:30:26;8.68;;;3.58;;
33413;SDS011;60055;41.884;12.534;2022-07-23T12:32:54;10.95;;;3.92;;
33413;SDS011;60055;41.884;12.534;2022-07-23T12:35:21;7.82;;;3.72;;
33413;SDS011;60055;41.884;12.534;2022-07-23T12:37:49;8.93;;;3.40;;
33413;SDS011;60055;41.884;12.534;2022-07-23T12:40:28;7.53;;;3.30;;
33413;SDS011;60055;41.884;12.534;2022-07-23T12:43:01;12.25;;;3.72;;
33413;SDS011;60055;41.884;12.534;2022-07-23T12:45:28;8.35;;;3.50;;
33413;SDS011;60055;41.884;12.534;2022-07-23T12:53:23;8.65;;;3.42;;
33413;SDS011;60055;41.884;12.534;2022-07-23T12:56:04;7.55;;;3.63;;
33413;SDS011;60055;41.884;12.534;2022-07-23T13:03:54;9.75;;;3.53;;
33413;SDS011;60055;41.884;12.534;2022-07-23T13:06:23;9.00;;;3.10;;
33413;SDS011;60055;41.884;12.534;2022-07-23T13:08:49;6.82;;;3.40;;
33413;SDS011;60055;41.884;12.534;2022-07-23T13:11:15;9.40;;;3.13;;
33413;SDS011;60055;41.884;12.534;2022-07-23T13:13:43;6.20;;;2.80;;
33413;SDS011;60055;41.884;12.534;2022-07-23T13:16:09;8.23;;;3.17;;
33413;SDS011;60055;41.884;12.534;2022-07-23T13:18:34;5.25;;;3.10;;
33413;SDS011;60055;41.884;12.534;2022-07-23T13:21:00;6.07;;;3.10;;
33413;SDS011;60055;41.884;12.534;2022-07-23T13:23:26;6.07;;;3.00;;
33413;SDS011;60055;41.884;12.534;2022-07-23T13:25:52;6.88;;;3.08;;
33413;SDS011;60055;41.884;12.534;2022-07-23T13:28:18;6.63;;;2.90;;
33413;SDS011;60055;41.884;12.534;2022-07-23T13:30:45;6.43;;;3.28;;
33413;SDS011;60055;41.884;12.534;2022-07-23T13:33:14;6.90;;;3.40;;
33413;SDS011;60055;41.884;12.534;2022-07-23T13:35:44;10.73;;;3.40;;
33413;SDS011;60055;41.884;12.534;2022-07-23T13:38:09;6.70;;;3.10;;
33413;SDS011;60055;41.884;12.534;2022-07-23T13:40:36;6.97;;;2.75;;
33413;SDS011;60055;41.884;12.534;2022-07-23T13:43:07;6.75;;;3.35;;
33413;SDS011;60055;41.884;12.534;2022-07-23T13:45:34;8.45;;;3.20;;
33413;SDS011;60055;41.884;12.534;2022-07-23T13:48:03;8.63;;;3.30;;
33413;SDS011;60055;41.884;12.534;2022-07-23T13:50:30;7.95;;;3.13;;
33413;SDS011;60055;41.884;12.534;2022-07-23T13:52:55;5.45;;;3.20;;
33413;SDS011;60055;41.884;12.534;2022-07-23T13:55:21;6.15;;;3.17;;
33413;SDS011;60055;41.884;12.534;2022-07-23T13:57:47;9.23;;;3.35;;
33413;SDS011;60055;41.884;12.534;2022-07-23T14:00:13;4.68;;;3.13;;
33413;SDS011;60055;41.884;12.534;2022-07-23T14:02:39;11.18;;;3.40;;
33413;SDS011;60055;41.884;12.534;2022-07-23T14:05:06;6.18;;;3.05;;
33413;SDS011;60055;41.884;12.534;2022-07-23T14:07:34;9.73;;;3.42;;
33413;SDS011;60055;41.884;12.534;2022-07-23T14:10:00;4.97;;;3.15;;
33413;SDS011;60055;41.884;12.534;2022-07-23T14:12:28;9.32;;;3.17;;
33413;SDS011;60055;41.884;12.534;2022-07-23T14:14:53;7.25;;;3.03;;
33413;SDS011;60055;41.884;12.534;2022-07-23T14:17:19;12.40;;;3.50;;
33413;SDS011;60055;41.884;12.534;2022-07-23T14:19:45;10.88;;;3.03;;
33413;SDS011;60055;41.884;12.534;2022-07-23T14:22:11;7.32;;;3.28;;
33413;SDS011;60055;41.884;12.534;2022-07-23T14:24:36;6.43;;;3.00;;
33413;SDS011;60055;41.884;12.534;2022-07-23T14:27:02;5.38;;;3.28;;
33413;SDS011;60055;41.884;12.534;2022-07-23T14:29:29;6.60;;;3.10;;
33413;SDS011;60055;41.884;12.534;2022-07-23T14:31:55;7.53;;;3.63;;
33413;SDS011;60055;41.884;12.534;2022-07-23T14:34:22;9.82;;;3.20;;
33413;SDS011;60055;41.884;12.534;2022-07-23T14:36:48;12.40;;;3.47;;
33413;SDS011;60055;41.884;12.534;2022-07-23T14:39:13;7.28;;;3.22;;
33413;SDS011;60055;41.884;12.534;2022-07-23T14:41:39;6.43;;;3.25;;
33413;SDS011;60055;41.884;12.534;2022-07-23T14:44:05;7.50;;;3.30;;
33413;SDS011;60055;41.884;12.534;2022-07-23T14:46:31;5.65;;;3.58;;
33413;SDS011;60055;41.884;12.534;2022-07-23T14:48:57;7.95;;;3.22;;
33413;SDS011;60055;41.884;12.534;2022-07-23T14:51:22;7.03;;;3.20;;
33413;SDS011;60055;41.884;12.534;2022-07-23T14:53:48;7.30;;;3.47;;
33413;SDS011;60055;41.884;12.534;2022-07-23T14:56:14;7.53;;;3.40;;
33413;SDS011;60055;41.884;12.534;2022-07-23T14:58:40;8.70;;;3.40;;
33413;SDS011;60055;41.884;12.534;2022-07-23T15:01:06;7.45;;;3.33;;
33413;SDS011;60055;41.884;12.534;2022-07-23T15:03:32;8.10;;;3.65;;
33413;SDS011;60055;41.884;12.534;2022-07-23T15:05:58;7.90;;;3.40;;
33413;SDS011;60055;41.884;12.534;2022-07-23T15:08:24;8.68;;;3.70;;
33413;SDS011;60055;41.884;12.534;2022-07-23T15:10:50;10.45;;;3.70;;
33413;SDS011;60055;41.884;12.534;2022-07-23T15:13:16;7.88;;;3.80;;
33413;SDS011;60055;41.884;12.534;2022-07-23T15:15:42;6.95;;;3.58;;